Time;durP1;ratioP1;P1;durP2;ratioP2;P2;SDS_P1;SDS_P2;PMS_P1;PMS_P2;Temp;Humidity;BMP_temperature;BMP_pressure;BME280_temperature;BME280_humidity;BME280_pressure;Samples;Min_cycle;Max_cycle;Signal;HPM_P1;HPM_P2
2023/10/10 00:02:18;;;;;;;0.50;0.50;;;11.30;99.90;;;;;;4413189;32;20069;-76
2023/10/10 00:04:47;;;;;;;0.32;0.32;;;11.40;99.90;;;;;;4412225;32;20144;-76
2023/10/10 00:07:14;;;;;;;0.40;0.40;;;11.30;99.90;;;;;;4411271;32;20446;-76
2023/10/10 00:09:44;;;;;;;0.55;0.55;;;11.30;99.90;;;;;;4414467;32;20130;-76
2023/10/10 00:12:14;;;;;;;0.50;0.50;;;11.40;99.90;;;;;;4413159;32;20069;-76
2023/10/10 00:14:39;;;;;;;2.25;0.70;;;11.40;99.90;;;;;;4414963;32;20151;-77
2023/10/10 00:17:08;;;;;;;0.50;0.50;;;11.30;99.90;;;;;;4408014;32;20474;-77
2023/10/10 00:19:43;;;;;;;4.97;0.60;;;11.30;99.90;;;;;;4415994;32;20438;-77
2023/10/10 00:22:09;;;;;;;0.40;0.40;;;11.30;99.90;;;;;;4412656;32;20089;-77
2023/10/10 00:24:35;;;;;;;1.95;0.80;;;11.30;99.90;;;;;;4422161;32;20545;-78
2023/10/10 00:27:12;;;;;;;0.50;0.50;;;11.20;99.90;;;;;;4415366;32;20163;-77
2023/10/10 00:29:42;;;;;;;0.30;0.30;;;11.20;99.90;;;;;;4419305;32;20190;-77
2023/10/10 00:32:16;;;;;;;0.63;0.63;;;11.20;99.90;;;;;;4416131;32;20078;-77
2023/10/10 00:34:47;;;;;;;0.73;0.50;;;11.20;99.90;;;;;;4416919;32;20509;-77
2023/10/10 00:37:14;;;;;;;0.70;0.70;;;11.20;99.90;;;;;;4410342;32;20058;-76
2023/10/10 00:39:39;;;;;;;0.55;0.55;;;11.20;99.90;;;;;;4414427;32;20070;-76
2023/10/10 00:42:08;;;;;;;1.67;1.02;;;11.20;99.90;;;;;;4414259;32;20082;-77
2023/10/10 00:44:37;;;;;;;0.40;0.40;;;11.20;99.90;;;;;;4422428;32;20130;-75
2023/10/10 00:47:04;;;;;;;0.70;0.70;;;11.20;99.90;;;;;;4419531;32;20351;-75
2023/10/10 00:49:31;;;;;;;0.40;0.40;;;11.20;99.90;;;;;;4415949;32;20476;-77
2023/10/10 00:52:01;;;;;;;0.57;0.57;;;11.20;99.90;;;;;;4424396;32;20069;-76
2023/10/10 00:54:31;;;;;;;5.60;1.07;;;11.30;99.90;;;;;;4427045;32;20610;-76
2023/10/10 00:56:59;;;;;;;2.30;1.23;;;11.30;99.90;;;;;;4416568;32;20093;-76
2023/10/10 00:59:35;;;;;;;2.25;0.65;;;11.30;99.90;;;;;;4420732;32;20058;-76
2023/10/10 01:02:04;;;;;;;0.50;0.50;;;11.40;99.90;;;;;;4411681;32;20074;-75
2023/10/10 01:04:39;;;;;;;0.70;0.65;;;11.50;99.90;;;;;;4418683;32;20090;-75
2023/10/10 01:07:07;;;;;;;0.30;0.30;;;11.40;99.90;;;;;;4419374;32;21332;-76
2023/10/10 01:09:35;;;;;;;1.00;0.50;;;11.40;99.90;;;;;;4420730;32;20077;-76
2023/10/10 01:12:04;;;;;;;0.90;0.90;;;11.40;99.90;;;;;;4421492;32;20124;-76
2023/10/10 01:14:31;;;;;;;0.98;0.82;;;11.40;99.90;;;;;;4418959;32;20459;-75
2023/10/10 01:16:58;;;;;;;0.40;0.40;;;11.40;99.90;;;;;;4416607;32;20150;-76
2023/10/10 01:19:28;;;;;;;0.50;0.50;;;11.50;99.90;;;;;;4415593;32;20450;-75
2023/10/10 01:21:57;;;;;;;0.40;0.40;;;11.50;99.90;;;;;;4414776;32;20098;-76
2023/10/10 01:24:25;;;;;;;1.05;0.90;;;11.50;99.90;;;;;;4425439;32;20101;-75
2023/10/10 01:26:51;;;;;;;0.73;0.73;;;11.50;99.90;;;;;;4421004;32;20191;-75
2023/10/10 01:29:23;;;;;;;1.15;0.85;;;11.40;99.90;;;;;;4422664;32;20065;-75
2023/10/10 01:31:51;;;;;;;4.93;1.55;;;11.40;99.90;;;;;;4417957;32;20085;-75
2023/10/10 01:34:43;;;;;;;0.55;0.50;;;11.40;99.90;;;;;;4415678;32;20069;-75
2023/10/10 01:37:07;;;;;;;7.00;0.98;;;11.40;99.90;;;;;;4400699;32;20437;-76
2023/10/10 01:39:54;;;;;;;0.97;0.87;;;11.30;99.90;;;;;;4420911;32;20061;-76
2023/10/10 01:42:31;;;;;;;1.25;1.02;;;11.30;99.90;;;;;;4404950;32;20158;-76
2023/10/10 01:44:59;;;;;;;1.65;1.05;;;11.30;99.90;;;;;;4424426;32;20092;-75
2023/10/10 01:47:26;;;;;;;4.78;1.10;;;11.30;99.90;;;;;;4417706;32;20106;-76
2023/10/10 01:49:54;;;;;;;2.92;1.08;;;11.40;99.90;;;;;;4415615;32;20594;-76
2023/10/10 01:52:21;;;;;;;0.40;0.40;;;11.40;99.90;;;;;;4416935;32;20097;-76
2023/10/10 01:54:52;;;;;;;1.05;0.95;;;11.40;99.90;;;;;;4419584;32;20062;-76
2023/10/10 01:57:22;;;;;;;5.30;2.00;;;11.40;99.90;;;;;;4412565;32;20557;-75
2023/10/10 01:59:48;;;;;;;0.73;0.73;;;11.40;99.90;;;;;;4421320;32;20069;-75
2023/10/10 02:02:16;;;;;;;3.78;1.15;;;11.50;99.90;;;;;;4420417;32;20093;-76
2023/10/10 02:04:44;;;;;;;1.85;0.80;;;11.50;99.90;;;;;;4414069;32;20097;-76
2023/10/10 02:07:31;;;;;;;0.85;0.75;;;11.40;99.90;;;;;;4417234;32;20085;-76
2023/10/10 02:10:26;;;;;;;0.50;0.50;;;11.40;99.90;;;;;;4404422;32;20069;-76
2023/10/10 02:12:44;;;;;;;2.65;1.10;;;11.40;99.90;;;;;;4401216;32;20069;-76
2023/10/10 02:15:13;;;;;;;1.55;0.80;;;11.40;99.90;;;;;;4412274;32;20473;-76
2023/10/10 02:17:41;;;;;;;0.32;0.32;;;11.40;99.90;;;;;;4408099;32;20604;-76
2023/10/10 02:20:50;;;;;;;0.43;0.43;;;11.40;99.90;;;;;;4418321;32;20414;-76
2023/10/10 02:23:01;;;;;;;0.95;0.70;;;11.40;99.90;;;;;;4407281;32;20094;-76
2023/10/10 02:27:56;;;;;;;2.53;1.10;;;11.40;99.90;;;;;;4401605;32;20616;-76
2023/10/10 02:30:38;;;;;;;0.80;0.80;;;11.40;99.90;;;;;;4395603;32;20482;-76
2023/10/10 02:33:14;;;;;;;0.55;0.55;;;11.40;99.90;;;;;;4410751;32;20671;-76
2023/10/10 02:35:56;;;;;;;0.77;0.77;;;11.50;99.90;;;;;;4402224;32;20450;-76
2023/10/10 02:38:23;;;;;;;6.55;0.70;;;11.50;99.90;;;;;;4409880;32;20196;-76
2023/10/10 02:40:55;;;;;;;1.65;1.35;;;11.60;99.90;;;;;;4412982;32;20065;-76
2023/10/10 02:43:45;;;;;;;0.57;0.57;;;11.60;99.90;;;;;;4409288;32;20152;-76
2023/10/10 02:46:07;;;;;;;0.90;0.85;;;11.70;99.90;;;;;;4416430;32;20084;-76
2023/10/10 02:48:38;;;;;;;2.15;0.85;;;11.60;99.90;;;;;;4397270;32;20109;-76
2023/10/10 02:51:04;;;;;;;3.92;1.12;;;11.60;99.90;;;;;;4414204;32;20089;-76
2023/10/10 02:53:32;;;;;;;3.03;0.75;;;11.60;99.90;;;;;;4411188;32;20081;-76
2023/10/10 02:56:01;;;;;;;6.53;1.12;;;11.70;99.90;;;;;;4413206;32;20101;-76
2023/10/10 02:58:37;;;;;;;0.65;0.65;;;11.60;99.90;;;;;;4412317;32;20062;-76
2023/10/10 03:01:04;;;;;;;0.57;0.57;;;11.60;99.90;;;;;;4417380;32;20125;-76
2023/10/10 03:03:29;;;;;;;0.60;0.60;;;11.60;99.90;;;;;;4414047;32;20402;-76
2023/10/10 03:05:55;;;;;;;0.95;0.95;;;11.70;99.90;;;;;;4413110;32;20074;-76
2023/10/10 03:08:51;;;;;;;0.80;0.50;;;11.60;99.90;;;;;;4413591;32;20062;-76
2023/10/10 03:11:34;;;;;;;0.73;0.70;;;11.60;99.90;;;;;;4403954;32;20089;-76
2023/10/10 03:14:00;;;;;;;0.90;0.85;;;11.60;99.90;;;;;;4403771;32;20098;-75
2023/10/10 03:20:02;;;;;;;1.08;0.88;;;11.60;99.90;;;;;;4414975;32;20117;-75
2023/10/10 03:21:51;;;;;;;0.47;0.47;;;11.70;99.90;;;;;;4408347;32;20101;-76
2023/10/10 03:29:49;;;;;;;0.57;0.57;;;11.70;99.90;;;;;;4409181;32;19980;-75
2023/10/10 03:32:32;;;;;;;5.93;1.30;;;11.70;99.90;;;;;;4414337;32;20106;-75
2023/10/10 03:35:05;;;;;;;1.05;0.82;;;11.80;99.90;;;;;;4421260;32;20870;-75
2023/10/10 03:37:40;;;;;;;1.35;0.95;;;11.90;99.90;;;;;;4415173;32;20086;-76
2023/10/10 03:40:22;;;;;;;0.73;0.65;;;11.90;99.90;;;;;;4423070;32;20815;-76
2023/10/10 05:23:30;;;;;;;1.87;1.10;;;12.00;99.90;;;;;;4407174;32;20069;-77
2023/10/10 05:23:34;;;;;;;0.98;0.60;;;12.60;99.90;;;;;;4432703;32;20113;-63
2023/10/10 05:25:24;;;;;;;1.00;0.90;;;12.60;99.90;;;;;;4429530;32;20108;-63
2023/10/10 05:27:51;;;;;;;0.55;0.55;;;12.70;99.90;;;;;;4415283;32;20089;-63
2023/10/10 05:30:25;;;;;;;0.55;0.55;;;12.70;99.90;;;;;;4401282;32;20434;-63
2023/10/10 05:33:07;;;;;;;0.40;0.40;;;12.70;99.90;;;;;;4398812;32;20461;-63
2023/10/10 05:35:37;;;;;;;0.62;0.40;;;12.70;99.90;;;;;;4421733;32;20157;-63
2023/10/10 05:38:07;;;;;;;0.50;0.50;;;12.80;99.90;;;;;;4413675;32;20081;-64
2023/10/10 05:40:33;;;;;;;0.60;0.60;;;12.80;99.90;;;;;;4411214;32;20879;-63
2023/10/10 05:43:00;;;;;;;0.62;0.62;;;12.90;99.90;;;;;;4412600;32;20104;-62
2023/10/10 05:45:27;;;;;;;1.10;0.85;;;12.90;99.90;;;;;;4422272;32;20098;-63
2023/10/10 05:47:53;;;;;;;0.65;0.40;;;12.90;99.90;;;;;;4425372;32;20203;-63
2023/10/10 05:50:19;;;;;;;0.93;0.60;;;13.00;99.90;;;;;;4421850;32;20109;-62
2023/10/10 05:52:45;;;;;;;0.50;0.50;;;13.00;99.90;;;;;;4414332;32;20405;-62
2023/10/10 05:55:11;;;;;;;0.75;0.62;;;13.00;99.90;;;;;;4394760;32;21717;-63
2023/10/10 05:57:37;;;;;;;0.45;0.45;;;13.10;99.90;;;;;;4386684;32;20073;-62
2023/10/10 06:00:11;;;;;;;0.47;0.47;;;13.10;99.90;;;;;;4381915;32;20144;-61
2023/10/10 06:02:34;;;;;;;0.62;0.62;;;13.20;99.90;;;;;;4397834;32;20109;-62
2023/10/10 06:05:00;;;;;;;0.40;0.40;;;13.30;99.90;;;;;;4406829;32;20288;-63
2023/10/10 06:07:27;;;;;;;0.80;0.80;;;13.30;99.90;;;;;;4400287;32;20076;-62
2023/10/10 06:09:53;;;;;;;1.02;0.50;;;13.40;99.90;;;;;;4399221;32;20089;-63
2023/10/10 06:12:19;;;;;;;2.65;1.48;;;13.40;99.90;;;;;;4401418;32;20080;-63
2023/10/10 06:14:46;;;;;;;0.57;0.57;;;13.40;99.90;;;;;;4407095;32;20199;-61
2023/10/10 06:17:12;;;;;;;3.40;0.73;;;13.40;99.90;;;;;;4394113;32;20136;-63
2023/10/10 06:19:38;;;;;;;0.80;0.80;;;13.40;99.90;;;;;;4402734;32;20588;-63
2023/10/10 06:22:08;;;;;;;1.20;0.85;;;13.50;99.90;;;;;;4412024;32;20127;-63
2023/10/10 06:24:34;;;;;;;1.65;0.98;;;13.50;99.90;;;;;;4410297;32;20073;-61
2023/10/10 06:27:00;;;;;;;0.40;0.40;;;13.50;99.90;;;;;;4405570;32;20542;-62
2023/10/10 06:29:29;;;;;;;0.60;0.60;;;13.50;99.90;;;;;;4408871;32;20053;-62
2023/10/10 06:31:56;;;;;;;1.75;0.73;;;13.50;99.90;;;;;;4417469;32;20198;-62
2023/10/10 06:34:22;;;;;;;0.62;0.60;;;13.60;99.90;;;;;;4406204;32;20787;-62
2023/10/10 06:36:49;;;;;;;8.40;1.00;;;13.60;99.90;;;;;;4407180;32;20530;-63
2023/10/10 06:41:47;;;;;;;0.40;0.40;;;13.70;99.90;;;;;;4386533;32;20705;-63
2023/10/10 06:44:13;;;;;;;0.32;0.32;;;13.60;99.90;;;;;;4388700;32;20088;-63
2023/10/10 06:46:40;;;;;;;0.30;0.30;;;13.70;99.90;;;;;;4390321;32;20097;-63
2023/10/10 06:49:06;;;;;;;0.40;0.40;;;13.70;99.90;;;;;;4400705;32;20513;-63
2023/10/10 06:51:33;;;;;;;0.50;0.50;;;13.70;99.90;;;;;;4393015;32;20740;-62
2023/10/10 06:53:59;;;;;;;0.43;0.43;;;13.80;99.90;;;;;;4404633;32;20105;-63
2023/10/10 06:57:35;;;;;;;0.37;0.37;;;13.80;99.90;;;;;;4403663;32;20876;-63
2023/10/10 06:59:16;;;;;;;1.17;0.85;;;13.80;99.90;;;;;;4402659;32;20089;-63
2023/10/10 07:04:11;;;;;;;0.30;0.30;;;13.90;99.90;;;;;;4401824;32;20073;-63
2023/10/10 07:06:37;;;;;;;0.30;0.30;;;13.90;99.90;;;;;;4386847;32;20117;-62
2023/10/10 07:09:14;;;;;;;0.30;0.30;;;13.80;99.90;;;;;;4406186;32;21284;-63
2023/10/10 07:11:40;;;;;;;0.32;0.32;;;13.90;99.90;;;;;;4399969;32;20113;-63
2023/10/10 07:14:09;;;;;;;0.35;0.35;;;13.90;99.90;;;;;;4400781;32;20056;-62
2023/10/10 07:16:34;;;;;;;8.35;0.70;;;13.90;99.90;;;;;;4402668;32;20222;-63
2023/10/10 07:19:19;;;;;;;0.45;0.45;;;13.90;99.90;;;;;;4405506;32;20101;-62
2023/10/10 07:21:46;;;;;;;0.55;0.50;;;13.90;99.90;;;;;;4400184;32;20120;-62
2023/10/10 07:24:13;;;;;;;0.30;0.30;;;14.00;99.90;;;;;;4394937;32;20088;-60
2023/10/10 07:26:41;;;;;;;0.43;0.43;;;14.00;99.90;;;;;;4401584;32;20109;-62
2023/10/10 07:30:16;;;;;;;0.62;0.62;;;14.00;99.90;;;;;;4400761;32;20088;-62
2023/10/10 07:32:04;;;;;;;0.40;0.40;;;14.10;99.90;;;;;;4383121;32;20723;-62
2023/10/10 07:34:35;;;;;;;0.52;0.52;;;14.10;99.90;;;;;;4394708;32;20100;-61
2023/10/10 07:37:08;;;;;;;0.50;0.50;;;14.10;99.90;;;;;;4397572;32;20116;-59
2023/10/10 07:39:36;;;;;;;0.30;0.30;;;14.10;99.90;;;;;;4405098;32;20113;-62
2023/10/10 07:42:03;;;;;;;0.65;0.65;;;14.10;99.90;;;;;;4391809;32;20109;-62
2023/10/10 07:44:30;;;;;;;1.65;1.08;;;14.10;99.90;;;;;;4403683;32;20150;-65
2023/10/10 07:47:27;;;;;;;0.70;0.70;;;14.10;99.90;;;;;;4397935;32;20118;-63
2023/10/10 07:49:50;;;;;;;0.52;0.50;;;14.10;99.90;;;;;;4399107;32;20276;-62
2023/10/10 07:52:16;;;;;;;0.40;0.40;;;14.20;99.90;;;;;;4379557;32;20187;-62
2023/10/10 07:54:45;;;;;;;9.00;0.70;;;14.20;99.90;;;;;;4385795;32;20085;-62
2023/10/10 07:57:17;;;;;;;0.50;0.50;;;14.20;99.90;;;;;;4390338;32;20421;-63
2023/10/10 07:59:44;;;;;;;0.37;0.37;;;14.30;99.90;;;;;;4397016;32;20105;-62
2023/10/10 08:02:31;;;;;;;0.45;0.45;;;14.30;99.90;;;;;;4403613;32;20409;-64
2023/10/10 08:04:57;;;;;;;0.47;0.47;;;14.30;99.90;;;;;;4398392;32;20109;-62
2023/10/10 08:07:24;;;;;;;0.40;0.40;;;14.30;99.90;;;;;;4404495;32;20814;-62
2023/10/10 08:10:11;;;;;;;0.80;0.80;;;14.30;99.90;;;;;;4402562;32;20084;-63
2023/10/10 08:12:37;;;;;;;0.73;0.52;;;14.30;99.90;;;;;;4382635;32;20078;-63
2023/10/10 08:15:19;;;;;;;0.60;0.60;;;14.30;99.90;;;;;;4404245;32;20135;-62
2023/10/10 08:17:52;;;;;;;0.50;0.50;;;14.40;99.90;;;;;;4395216;32;20122;-62
2023/10/10 08:23:08;;;;;;;0.40;0.40;;;14.40;99.90;;;;;;4399618;32;20137;-63
2023/10/10 08:25:37;;;;;;;0.40;0.40;;;14.40;99.90;;;;;;4393971;32;20178;-62
2023/10/10 08:28:03;;;;;;;0.30;0.30;;;14.40;99.90;;;;;;4394547;32;20121;-63
2023/10/10 08:30:29;;;;;;;0.37;0.35;;;14.40;99.90;;;;;;4372997;32;20104;-63
2023/10/10 08:32:56;;;;;;;5.05;0.93;;;14.50;99.90;;;;;;4398679;32;20855;-64
2023/10/10 08:35:23;;;;;;;0.60;0.60;;;14.50;99.90;;;;;;4389185;32;20794;-62
2023/10/10 08:37:50;;;;;;;0.80;0.80;;;14.60;99.90;;;;;;4397834;32;20180;-64
2023/10/10 08:40:19;;;;;;;0.40;0.40;;;14.70;99.90;;;;;;4396070;32;20570;-62
2023/10/10 08:42:48;;;;;;;0.40;0.40;;;14.70;99.90;;;;;;4397034;32;20202;-63
2023/10/10 08:45:24;;;;;;;0.35;0.35;;;14.70;99.90;;;;;;4396275;32;20093;-64
2023/10/10 08:47:58;;;;;;;0.40;0.40;;;14.80;99.90;;;;;;4395614;32;20588;-63
2023/10/10 08:50:24;;;;;;;0.40;0.40;;;14.90;99.90;;;;;;4378845;32;20538;-63
2023/10/10 08:52:51;;;;;;;0.40;0.40;;;14.90;99.90;;;;;;4403465;32;20185;-63
2023/10/10 08:55:19;;;;;;;0.40;0.40;;;14.90;99.90;;;;;;4403613;32;20156;-64
2023/10/10 08:57:45;;;;;;;0.40;0.40;;;14.90;99.90;;;;;;4386880;32;20267;-63
2023/10/10 09:02:35;;;;;;;0.77;0.45;;;15.00;99.90;;;;;;4396414;32;20270;-63
2023/10/10 09:05:04;;;;;;;0.50;0.50;;;15.10;99.90;;;;;;4398107;32;21585;-63
2023/10/10 09:07:32;;;;;;;0.30;0.30;;;15.10;99.90;;;;;;4391470;32;20109;-64
2023/10/10 09:10:05;;;;;;;0.98;0.70;;;15.10;99.90;;;;;;4400410;32;20089;-64
2023/10/10 09:12:34;;;;;;;0.40;0.40;;;15.20;99.90;;;;;;4396415;32;20576;-64
2023/10/10 09:15:13;;;;;;;0.30;0.30;;;15.10;99.90;;;;;;4392578;32;20077;-63
2023/10/10 09:17:40;;;;;;;0.57;0.57;;;15.10;99.90;;;;;;4401596;32;20105;-63
2023/10/10 09:20:22;;;;;;;0.40;0.40;;;15.10;99.90;;;;;;4391953;32;20100;-64
2023/10/10 09:22:52;;;;;;;0.55;0.40;;;15.10;99.90;;;;;;4394555;32;20121;-64
2023/10/10 09:25:21;;;;;;;0.55;0.50;;;15.20;99.90;;;;;;4393823;32;20179;-62
2023/10/10 09:28:04;;;;;;;0.82;0.82;;;15.10;99.90;;;;;;4402317;32;20098;-61
2023/10/10 09:30:32;;;;;;;0.62;0.62;;;15.10;99.90;;;;;;4384749;32;20459;-64
2023/10/10 09:33:13;;;;;;;0.40;0.40;;;15.00;99.90;;;;;;4390469;32;20104;-61
2023/10/10 09:35:40;;;;;;;0.47;0.47;;;15.00;99.90;;;;;;4402533;32;20174;-64
2023/10/10 09:38:12;;;;;;;0.57;0.45;;;15.00;99.90;;;;;;4404961;32;20721;-61
2023/10/10 09:40:40;;;;;;;1.40;0.60;;;15.00;99.90;;;;;;4417104;32;20474;-62
2023/10/10 09:43:12;;;;;;;0.52;0.45;;;15.00;99.90;;;;;;4415555;32;20158;-63
2023/10/10 09:46:19;;;;;;;0.50;0.50;;;15.00;99.90;;;;;;4416508;32;20089;-62
2023/10/10 09:48:59;;;;;;;0.60;0.60;;;15.00;99.90;;;;;;4396805;32;20772;-63
2023/10/10 09:51:30;;;;;;;0.30;0.30;;;15.10;99.90;;;;;;4412856;32;20093;-63
2023/10/10 09:54:15;;;;;;;0.30;0.30;;;15.10;99.90;;;;;;4414018;32;20569;-62
2023/10/10 09:56:45;;;;;;;7.90;1.00;;;15.10;99.90;;;;;;4409266;32;20182;-63
2023/10/10 09:59:13;;;;;;;0.45;0.40;;;15.20;99.90;;;;;;4416362;32;20104;-63
2023/10/10 10:01:45;;;;;;;0.40;0.40;;;15.20;99.90;;;;;;4389602;32;20693;-62
2023/10/10 10:04:18;;;;;;;0.50;0.50;;;15.30;99.90;;;;;;4418316;32;20752;-65
2023/10/10 10:07:01;;;;;;;0.40;0.40;;;15.20;99.90;;;;;;4421265;32;20070;-61
2023/10/10 10:09:45;;;;;;;0.50;0.50;;;15.30;99.90;;;;;;4415872;32;20089;-62
2023/10/10 10:12:19;;;;;;;0.30;0.30;;;15.40;99.90;;;;;;4416990;32;20101;-63
2023/10/10 10:15:22;;;;;;;0.50;0.50;;;15.50;99.90;;;;;;4417195;32;20981;-64
2023/10/10 10:18:11;;;;;;;0.32;0.32;;;15.50;99.90;;;;;;4415234;32;20237;-62
2023/10/10 10:23:26;;;;;;;6.55;1.15;;;15.60;99.90;;;;;;4409540;32;20662;-63
2023/10/10 10:25:54;;;;;;;4.65;0.93;;;15.60;99.90;;;;;;4425505;32;20517;-63
2023/10/10 10:28:28;;;;;;;0.40;0.40;;;15.60;99.90;;;;;;4414221;32;20089;-61
2023/10/10 10:30:54;;;;;;;0.40;0.40;;;15.60;99.90;;;;;;4425548;32;20084;-63
2023/10/10 10:33:22;;;;;;;0.30;0.30;;;15.60;99.90;;;;;;4430520;32;20502;-63
2023/10/10 10:35:56;;;;;;;0.30;0.30;;;15.60;99.90;;;;;;4424848;32;20097;-64
2023/10/10 10:38:23;;;;;;;0.57;0.57;;;15.60;99.90;;;;;;4419605;32;20597;-64
2023/10/10 10:40:50;;;;;;;0.30;0.30;;;15.60;99.90;;;;;;4429213;32;20344;-63
2023/10/10 10:43:34;;;;;;;2.97;0.65;;;15.70;99.90;;;;;;4419244;32;20146;-64
2023/10/10 10:46:14;;;;;;;0.30;0.30;;;15.60;99.90;;;;;;4424164;32;20117;-63
2023/10/10 10:48:41;;;;;;;0.45;0.45;;;15.70;99.90;;;;;;4421762;32;20089;-64
2023/10/10 10:52:17;;;;;;;0.30;0.30;;;15.70;99.90;;;;;;4411631;32;20147;-63
2023/10/10 10:53:58;;;;;;;0.40;0.40;;;15.70;99.90;;;;;;4423776;32;20097;-64
2023/10/10 11:01:23;;;;;;;0.60;0.60;;;15.80;99.90;;;;;;4426110;32;20251;-64
2023/10/10 11:03:51;;;;;;;0.30;0.30;;;15.80;99.90;;;;;;4422957;32;20181;-64
2023/10/10 11:06:20;;;;;;;0.37;0.37;;;15.70;99.90;;;;;;4431863;32;20060;-64
2023/10/10 11:14:01;;;;;;;0.60;0.60;;;15.80;99.90;;;;;;4433510;32;20093;-64
2023/10/10 11:16:36;;;;;;;0.30;0.30;;;15.90;99.90;;;;;;4423594;32;20057;-64
2023/10/10 11:21:49;;;;;;;0.32;0.32;;;16.00;99.90;;;;;;4430485;32;20058;-63
2023/10/10 11:24:24;;;;;;;0.40;0.40;;;16.00;99.90;;;;;;4426423;32;20135;-64
2023/10/10 11:27:07;;;;;;;0.43;0.43;;;16.00;99.90;;;;;;4429614;32;20112;-63
2023/10/10 11:29:41;;;;;;;0.40;0.40;;;16.10;99.90;;;;;;4424549;32;20080;-64
2023/10/10 11:32:08;;;;;;;4.35;1.55;;;16.10;99.90;;;;;;4426032;32;20627;-63
2023/10/10 11:34:42;;;;;;;0.47;0.32;;;16.20;99.90;;;;;;4412583;32;20081;-62
2023/10/10 11:37:12;;;;;;;0.40;0.40;;;16.20;99.90;;;;;;4423846;32;20105;-62
2023/10/10 11:39:46;;;;;;;0.30;0.30;;;16.30;99.90;;;;;;4425513;32;20101;-63
2023/10/10 11:42:22;;;;;;;0.37;0.37;;;16.30;99.90;;;;;;4430992;32;20066;-63
2023/10/10 11:44:53;;;;;;;0.52;0.52;;;16.40;99.90;;;;;;4433360;32;20435;-63
2023/10/10 11:47:24;;;;;;;0.20;0.20;;;16.40;99.90;;;;;;4433777;32;20393;-64
2023/10/10 11:50:00;;;;;;;0.20;0.20;;;16.30;99.90;;;;;;4431500;32;86962;-62
2023/10/10 11:52:27;;;;;;;0.25;0.25;;;16.30;99.90;;;;;;4430907;32;20065;-63
2023/10/10 11:54:54;;;;;;;0.40;0.40;;;16.30;99.90;;;;;;4436269;32;20131;-64
2023/10/10 11:57:20;;;;;;;0.30;0.30;;;16.30;99.90;;;;;;4428406;32;20073;-62
2023/10/10 11:59:46;;;;;;;0.70;0.70;;;16.30;99.90;;;;;;4435979;32;20235;-63
2023/10/10 12:02:29;;;;;;;0.40;0.40;;;16.30;99.90;;;;;;4431299;32;20167;-62
2023/10/10 12:04:55;;;;;;;0.40;0.40;;;16.30;99.90;;;;;;4433088;32;20121;-63
2023/10/10 12:07:24;;;;;;;0.40;0.40;;;16.40;99.90;;;;;;4426590;32;20532;-62
2023/10/10 12:09:52;;;;;;;0.93;0.60;;;16.50;99.90;;;;;;4429335;32;20089;-63
2023/10/10 12:12:18;;;;;;;0.30;0.30;;;16.60;99.90;;;;;;4426308;32;20435;-62
2023/10/10 12:14:43;;;;;;;0.30;0.30;;;16.70;99.90;;;;;;4437124;32;20101;-63
2023/10/10 12:17:09;;;;;;;0.75;0.75;;;16.70;99.90;;;;;;4430878;32;20100;-60
2023/10/10 12:19:38;;;;;;;0.30;0.30;;;16.70;99.90;;;;;;4433379;32;20570;-63
2023/10/10 12:22:08;;;;;;;0.30;0.30;;;16.70;99.90;;;;;;4437915;32;20147;-62
2023/10/10 12:24:35;;;;;;;0.55;0.40;;;16.70;99.90;;;;;;4435748;32;20081;-63
2023/10/10 12:27:01;;;;;;;0.32;0.32;;;16.70;99.90;;;;;;4434441;32;20077;-63
2023/10/10 12:29:30;;;;;;;0.30;0.30;;;16.70;99.90;;;;;;4430043;32;20061;-63
2023/10/10 12:31:56;;;;;;;0.30;0.30;;;16.70;99.90;;;;;;4436132;32;20480;-63
2023/10/10 12:34:23;;;;;;;0.30;0.30;;;16.70;99.90;;;;;;4434690;32;20540;-63
2023/10/10 12:36:50;;;;;;;0.30;0.30;;;16.70;99.90;;;;;;4430241;32;20221;-64
2023/10/10 12:39:16;;;;;;;0.40;0.40;;;16.60;99.90;;;;;;4429541;32;20057;-63
2023/10/10 12:41:48;;;;;;;0.70;0.70;;;16.60;99.90;;;;;;4433704;32;20514;-64
2023/10/10 12:44:14;;;;;;;0.40;0.40;;;16.70;99.90;;;;;;4437112;32;20536;-63
2023/10/10 12:46:40;;;;;;;0.30;0.30;;;16.80;99.90;;;;;;4430889;32;20097;-62
2023/10/10 12:49:11;;;;;;;0.73;0.40;;;16.90;99.90;;;;;;4435703;32;20469;-62
2023/10/10 12:51:38;;;;;;;0.30;0.30;;;17.00;99.90;;;;;;4435943;32;20171;-63
2023/10/10 12:54:05;;;;;;;0.30;0.30;;;17.00;99.90;;;;;;4432166;32;20065;-62
2023/10/10 12:56:38;;;;;;;3.12;0.93;;;17.00;99.90;;;;;;4430828;32;20088;-63
2023/10/10 12:59:07;;;;;;;0.52;0.45;;;16.90;99.90;;;;;;4418500;32;20058;-63
2023/10/10 13:01:35;;;;;;;0.30;0.30;;;16.90;99.90;;;;;;4433427;32;20085;-62
2023/10/10 13:04:07;;;;;;;0.20;0.20;;;16.90;99.90;;;;;;4434066;32;20184;-63
2023/10/10 13:06:35;;;;;;;0.40;0.40;;;16.90;99.90;;;;;;4434297;32;20580;-62
2023/10/10 13:09:03;;;;;;;0.20;0.20;;;16.90;99.90;;;;;;4435790;32;20512;-63
2023/10/10 13:11:43;;;;;;;0.30;0.30;;;17.10;99.90;;;;;;4434853;32;20094;-63
2023/10/10 13:14:14;;;;;;;0.20;0.20;;;17.20;99.90;;;;;;4434890;32;20112;-62
2023/10/10 13:19:11;;;;;;;0.20;0.20;;;17.40;99.90;;;;;;4430096;32;20069;-63
2023/10/10 13:21:38;;;;;;;0.50;0.50;;;17.50;99.90;;;;;;4415077;32;20090;-63
2023/10/10 13:24:09;;;;;;;0.30;0.30;;;17.40;99.90;;;;;;4434650;32;21028;-63
2023/10/10 13:26:36;;;;;;;0.30;0.30;;;17.40;99.90;;;;;;4426279;32;20730;-62
2023/10/10 13:29:02;;;;;;;2.83;0.40;;;17.40;99.90;;;;;;4428925;32;20081;-63
2023/10/10 13:31:29;;;;;;;0.20;0.20;;;17.40;99.90;;;;;;4431844;32;20604;-63
2023/10/10 13:33:56;;;;;;;7.75;1.23;;;17.50;99.90;;;;;;4428443;32;20461;-62
2023/10/10 13:36:21;;;;;;;0.40;0.40;;;17.60;99.90;;;;;;4430854;32;20560;-61
2023/10/10 13:38:49;;;;;;;0.32;0.32;;;17.70;99.90;;;;;;4428162;32;20147;-63
2023/10/10 13:41:18;;;;;;;0.30;0.30;;;17.70;99.90;;;;;;4436022;32;20094;-62
2023/10/10 13:43:47;;;;;;;0.20;0.20;;;17.70;99.90;;;;;;4419869;32;20057;-63
2023/10/10 13:46:14;;;;;;;0.40;0.40;;;17.70;99.90;;;;;;4437171;32;20567;-63
2023/10/10 13:48:40;;;;;;;0.30;0.30;;;17.70;99.90;;;;;;4431597;32;20521;-61
2023/10/10 13:51:08;;;;;;;0.37;0.37;;;17.60;99.90;;;;;;4437086;32;20065;-63
2023/10/10 13:53:37;;;;;;;0.22;0.22;;;17.40;99.90;;;;;;4419814;32;20183;-63
2023/10/10 13:56:03;;;;;;;0.50;0.50;;;17.30;99.90;;;;;;4423027;32;20443;-61
2023/10/10 13:58:30;;;;;;;0.30;0.30;;;17.20;99.90;;;;;;4430047;32;21356;-62
2023/10/10 14:00:57;;;;;;;0.98;0.85;;;17.10;99.90;;;;;;4441879;32;20084;-61
2023/10/10 14:03:29;;;;;;;0.30;0.30;;;17.10;99.90;;;;;;4444851;32;20073;-62
2023/10/10 14:06:12;;;;;;;0.40;0.40;;;17.10;99.90;;;;;;4442799;32;20089;-62
2023/10/10 14:08:43;;;;;;;0.32;0.32;;;17.00;99.90;;;;;;4438025;32;20077;-62
2023/10/10 14:11:10;;;;;;;0.40;0.40;;;17.00;99.90;;;;;;4443471;32;20418;-62
2023/10/10 14:13:36;;;;;;;0.20;0.20;;;17.00;99.90;;;;;;4446614;32;20073;-63
2023/10/10 14:16:01;;;;;;;0.30;0.30;;;17.10;99.90;;;;;;4441869;32;20109;-62
2023/10/10 14:18:30;;;;;;;0.32;0.32;;;17.00;99.90;;;;;;4436338;32;20058;-61
2023/10/10 14:21:00;;;;;;;0.47;0.47;;;16.90;99.90;;;;;;4434427;32;20086;-61
2023/10/10 14:23:29;;;;;;;0.40;0.40;;;16.90;99.90;;;;;;4438874;32;20127;-62
2023/10/10 14:26:12;;;;;;;0.30;0.30;;;16.80;99.90;;;;;;4429942;32;20493;-61
2023/10/10 14:28:39;;;;;;;0.30;0.30;;;16.80;99.90;;;;;;4429829;32;20127;-62
2023/10/10 14:31:05;;;;;;;0.30;0.30;;;16.80;99.90;;;;;;4433459;32;20065;-62
2023/10/10 14:33:30;;;;;;;0.35;0.35;;;16.80;99.90;;;;;;4410427;32;20851;-62
2023/10/10 14:35:56;;;;;;;0.32;0.32;;;16.90;99.90;;;;;;4436376;32;20154;-62
2023/10/10 14:38:21;;;;;;;0.30;0.30;;;17.00;99.90;;;;;;4431585;32;20133;-61
2023/10/10 14:40:47;;;;;;;0.43;0.32;;;17.00;99.90;;;;;;4435994;32;20126;-62
2023/10/10 14:43:12;;;;;;;0.30;0.30;;;17.00;99.90;;;;;;4436226;32;20231;-61
2023/10/10 14:45:43;;;;;;;0.25;0.25;;;17.00;99.90;;;;;;4437186;32;20081;-62
2023/10/10 14:48:10;;;;;;;0.30;0.30;;;16.90;99.90;;;;;;4433938;32;20124;-61
2023/10/10 14:50:37;;;;;;;0.32;0.32;;;16.90;99.90;;;;;;4436034;32;20116;-62
2023/10/10 14:53:08;;;;;;;0.30;0.30;;;16.80;99.90;;;;;;4437660;32;20111;-62
2023/10/10 14:55:39;;;;;;;;;;;16.70;99.90;;;;;;4436735;32;20124;-62
2023/10/10 14:58:08;;;;;;;;;;;16.70;99.90;;;;;;4430215;32;19951;-62
2023/10/10 15:00:39;;;;;;;0.50;0.50;;;16.70;99.90;;;;;;4437267;32;20755;-62
2023/10/10 15:03:12;;;;;;;;;;;16.70;99.90;;;;;;4436777;32;20065;-61
2023/10/10 15:05:46;;;;;;;0.40;0.40;;;16.70;99.90;;;;;;4435859;32;19973;-62
2023/10/10 15:08:13;;;;;;;0.73;0.73;;;16.80;99.90;;;;;;4438634;32;20432;-62
2023/10/10 15:10:40;;;;;;;0.30;0.30;;;16.70;99.90;;;;;;4440225;32;20124;-62
2023/10/10 15:13:08;;;;;;;0.32;0.32;;;16.70;99.90;;;;;;4436684;32;20113;-61
2023/10/10 15:15:34;;;;;;;0.68;0.68;;;16.70;99.90;;;;;;4438384;32;20076;-63
2023/10/10 15:18:00;;;;;;;0.30;0.30;;;16.70;99.90;;;;;;4434723;32;20081;-63
2023/10/10 15:20:27;;;;;;;0.32;0.32;;;16.70;99.90;;;;;;4441770;32;20135;-62
2023/10/10 15:22:53;;;;;;;0.30;0.30;;;16.70;99.90;;;;;;4443378;32;20081;-62